sensor_id;sensor_type;location;lat;lon;timestamp;pressure;altitude;pressure_sealevel;temperature;humidity
73692;BME280;61996;49.910;35.562;2022-10-23T00:00:22;99609.13;;;19.38;49.94
73692;BME280;61996;49.910;35.562;2022-10-23T00:03:25;99609.97;;;19.39;49.80
73692;BME280;61996;49.910;35.562;2022-10-23T00:06:28;99604.22;;;19.43;49.68
73692;BME280;61996;49.910;35.562;2022-10-23T00:09:31;99594.41;;;19.44;49.85
73692;BME280;61996;49.910;35.562;2022-10-23T00:12:33;99602.81;;;19.39;49.86
73692;BME280;61996;49.910;35.562;2022-10-23T00:15:37;99594.69;;;19.41;49.89
73692;BME280;61996;49.910;35.562;2022-10-23T00:18:40;99590.31;;;19.40;49.90
73692;BME280;61996;49.910;35.562;2022-10-23T00:21:43;99590.19;;;19.41;49.91
73692;BME280;61996;49.910;35.562;2022-10-23T00:24:45;99586.13;;;19.37;50.02
73692;BME280;61996;49.910;35.562;2022-10-23T00:27:48;99576.44;;;19.36;49.99
73692;BME280;61996;49.910;35.562;2022-10-23T00:30:52;99558.78;;;19.35;50.00
73692;BME280;61996;49.910;35.562;2022-10-23T00:33:55;99558.34;;;19.30;49.99
73692;BME280;61996;49.910;35.562;2022-10-23T00:36:58;99559.34;;;19.29;50.07
73692;BME280;61996;49.910;35.562;2022-10-23T00:40:00;99558.50;;;19.29;50.07
73692;BME280;61996;49.910;35.562;2022-10-23T00:43:03;99546.69;;;19.31;50.05
73692;BME280;61996;49.910;35.562;2022-10-23T00:46:08;99539.53;;;19.32;49.98
73692;BME280;61996;49.910;35.562;2022-10-23T00:49:10;99532.38;;;19.32;49.93
73692;BME280;61996;49.910;35.562;2022-10-23T00:52:15;99522.56;;;19.33;49.98
73692;BME280;61996;49.910;35.562;2022-10-23T00:55:18;99521.44;;;19.35;50.00
73692;BME280;61996;49.910;35.562;2022-10-23T00:58:21;99509.78;;;19.36;49.78
73692;BME280;61996;49.910;35.562;2022-10-23T01:01:25;99503.31;;;19.39;49.80
73692;BME280;61996;49.910;35.562;2022-10-23T01:04:28;99501.94;;;19.35;49.86
73692;BME280;61996;49.910;35.562;2022-10-23T01:07:32;99508.53;;;19.31;49.99
73692;BME280;61996;49.910;35.562;2022-10-23T01:10:38;99500.00;;;19.27;49.98
73692;BME280;61996;49.910;35.562;2022-10-23T01:13:45;99504.19;;;19.30;50.00
73692;BME280;61996;49.910;35.562;2022-10-23T01:16:54;99506.03;;;19.29;49.92
73692;BME280;61996;49.910;35.562;2022-10-23T01:20:06;99510.22;;;19.32;49.83
73692;BME280;61996;49.910;35.562;2022-10-23T01:26:44;99495.88;;;19.33;49.81
73692;BME280;61996;49.910;35.562;2022-10-23T01:29:57;99486.09;;;19.33;49.78
73692;BME280;61996;49.910;35.562;2022-10-23T01:33:01;99493.94;;;19.35;49.72
73692;BME280;61996;49.910;35.562;2022-10-23T01:36:07;99492.25;;;19.34;49.83
73692;BME280;61996;49.910;35.562;2022-10-23T01:39:14;99486.94;;;19.34;49.98
73692;BME280;61996;49.910;35.562;2022-10-23T01:42:18;99485.22;;;19.33;49.91
73692;BME280;61996;49.910;35.562;2022-10-23T01:45:25;99480.75;;;19.33;49.88
73692;BME280;61996;49.910;35.562;2022-10-23T01:48:30;99479.19;;;19.31;49.90
73692;BME280;61996;49.910;35.562;2022-10-23T01:51:35;99481.88;;;19.31;49.86
73692;BME280;61996;49.910;35.562;2022-10-23T01:54:41;99475.44;;;19.33;49.76
73692;BME280;61996;49.910;35.562;2022-10-23T01:57:47;99472.03;;;19.31;49.84
73692;BME280;61996;49.910;35.562;2022-10-23T02:00:52;99476.53;;;19.31;49.76
73692;BME280;61996;49.910;35.562;2022-10-23T02:03:58;99467.69;;;19.30;49.86
73692;BME280;61996;49.910;35.562;2022-10-23T02:07:04;99477.38;;;19.31;49.82
73692;BME280;61996;49.910;35.562;2022-10-23T02:10:07;99475.28;;;19.35;49.81
73692;BME280;61996;49.910;35.562;2022-10-23T02:13:11;99463.88;;;19.33;49.75
73692;BME280;61996;49.910;35.562;2022-10-23T02:16:20;99465.72;;;19.32;49.78
73692;BME280;61996;49.910;35.562;2022-10-23T02:19:27;99469.22;;;19.33;49.77
73692;BME280;61996;49.910;35.562;2022-10-23T02:22:32;99464.75;;;19.33;49.70
73692;BME280;61996;49.910;35.562;2022-10-23T02:25:38;99464.75;;;19.33;49.82
73692;BME280;61996;49.910;35.562;2022-10-23T02:28:46;99461.22;;;19.33;49.84
73692;BME280;61996;49.910;35.562;2022-10-23T02:31:52;99462.38;;;19.30;49.93
73692;BME280;61996;49.910;35.562;2022-10-23T02:34:55;99466.03;;;19.29;50.03
73692;BME280;61996;49.910;35.562;2022-10-23T02:37:58;99459.69;;;19.30;50.18
73692;BME280;61996;49.910;35.562;2022-10-23T02:44:27;99450.03;;;19.29;50.03
73692;BME280;61996;49.910;35.562;2022-10-23T02:47:37;99437.69;;;19.28;50.05
73692;BME280;61996;49.910;35.562;2022-10-23T02:50:46;99430.38;;;19.30;49.93
73692;BME280;61996;49.910;35.562;2022-10-23T02:53:52;99423.38;;;19.29;49.87
73692;BME280;61996;49.910;35.562;2022-10-23T02:57:02;99425.19;;;19.29;49.97
73692;BME280;61996;49.910;35.562;2022-10-23T03:00:08;99430.38;;;19.30;49.73
73692;BME280;61996;49.910;35.562;2022-10-23T03:03:14;99434.19;;;19.28;49.99
73692;BME280;61996;49.910;35.562;2022-10-23T03:06:18;99430.22;;;19.32;49.88
73692;BME280;61996;49.910;35.562;2022-10-23T03:09:22;99423.38;;;19.29;49.84
73692;BME280;61996;49.910;35.562;2022-10-23T03:12:24;99427.72;;;19.30;49.77
73692;BME280;61996;49.910;35.562;2022-10-23T03:15:27;99431.06;;;19.32;49.72
73692;BME280;61996;49.910;35.562;2022-10-23T03:18:31;99426.88;;;19.30;49.97
73692;BME280;61996;49.910;35.562;2022-10-23T03:21:34;99409.19;;;19.29;49.91
73692;BME280;61996;49.910;35.562;2022-10-23T03:24:37;99431.50;;;19.28;49.86
73692;BME280;61996;49.910;35.562;2022-10-23T03:27:40;99420.53;;;19.31;49.79
73692;BME280;61996;49.910;35.562;2022-10-23T03:30:42;99418.56;;;19.33;49.71
73692;BME280;61996;49.910;35.562;2022-10-23T03:33:47;99409.88;;;19.31;49.64
73692;BME280;61996;49.910;35.562;2022-10-23T03:36:49;99408.06;;;19.31;49.65
73692;BME280;61996;49.910;35.562;2022-10-23T03:39:52;99409.72;;;19.32;49.77
73692;BME280;61996;49.910;35.562;2022-10-23T03:42:55;99413.53;;;19.30;49.71
73692;BME280;61996;49.910;35.562;2022-10-23T03:45:58;99414.22;;;19.32;49.70
73692;BME280;61996;49.910;35.562;2022-10-23T03:49:03;99394.88;;;19.30;49.70
73692;BME280;61996;49.910;35.562;2022-10-23T03:52:06;99407.22;;;19.31;49.70
73692;BME280;61996;49.910;35.562;2022-10-23T03:55:09;99407.06;;;19.32;49.62
73692;BME280;61996;49.910;35.562;2022-10-23T03:58:12;99405.22;;;19.33;49.67
73692;BME280;61996;49.910;35.562;2022-10-23T04:01:15;99399.38;;;19.29;49.65
73692;BME280;61996;49.910;35.562;2022-10-23T04:04:19;99398.97;;;19.24;49.67
73692;BME280;61996;49.910;35.562;2022-10-23T04:07:22;99396.28;;;19.24;49.73
73692;BME280;61996;49.910;35.562;2022-10-23T04:10:25;99407.13;;;19.23;49.71
73692;BME280;61996;49.910;35.562;2022-10-23T04:13:27;99392.63;;;19.25;49.72
73692;BME280;61996;49.910;35.562;2022-10-23T04:16:30;99393.63;;;19.24;49.60
73692;BME280;61996;49.910;35.562;2022-10-23T04:19:34;99386.94;;;19.20;49.69
73692;BME280;61996;49.910;35.562;2022-10-23T04:22:37;99388.59;;;19.21;49.63
73692;BME280;61996;49.910;35.562;2022-10-23T04:25:40;99378.47;;;19.25;49.59
73692;BME280;61996;49.910;35.562;2022-10-23T04:28:43;99379.63;;;19.22;49.49
73692;BME280;61996;49.910;35.562;2022-10-23T04:31:46;99377.09;;;19.21;49.63
73692;BME280;61996;49.910;35.562;2022-10-23T04:34:50;99374.44;;;19.21;49.62
73692;BME280;61996;49.910;35.562;2022-10-23T04:37:53;99373.44;;;19.22;49.46
73692;BME280;61996;49.910;35.562;2022-10-23T04:40:56;99375.44;;;19.20;49.61
73692;BME280;61996;49.910;35.562;2022-10-23T04:43:59;99360.56;;;19.17;49.63
73692;BME280;61996;49.910;35.562;2022-10-23T04:47:02;99366.44;;;19.21;49.38
73692;BME280;61996;49.910;35.562;2022-10-23T04:50:07;99365.03;;;19.16;49.64
73692;BME280;61996;49.910;35.562;2022-10-23T04:53:09;99363.53;;;19.14;49.56
73692;BME280;61996;49.910;35.562;2022-10-23T04:56:13;99374.03;;;19.15;49.58
73692;BME280;61996;49.910;35.562;2022-10-23T04:59:16;99359.88;;;19.15;49.57
73692;BME280;61996;49.910;35.562;2022-10-23T05:02:18;99357.88;;;19.17;49.50
73692;BME280;61996;49.910;35.562;2022-10-23T05:05:23;99367.56;;;19.18;49.50
73692;BME280;61996;49.910;35.562;2022-10-23T05:08:25;99367.44;;;19.20;49.49
73692;BME280;61996;49.910;35.562;2022-10-23T05:11:28;99365.19;;;19.15;49.47
73692;BME280;61996;49.910;35.562;2022-10-23T05:14:31;99375.72;;;19.16;49.43
73692;BME280;61996;49.910;35.562;2022-10-23T05:17:34;99366.72;;;19.17;49.33
73692;BME280;61996;49.910;35.562;2022-10-23T05:20:39;99367.72;;;19.16;49.48
73692;BME280;61996;49.910;35.562;2022-10-23T05:23:43;99373.88;;;19.17;49.44
73692;BME280;61996;49.910;35.562;2022-10-23T05:26:47;99359.03;;;19.14;49.53
73692;BME280;61996;49.910;35.562;2022-10-23T05:29:52;99360.28;;;19.10;49.78
73692;BME280;61996;49.910;35.562;2022-10-23T05:32:54;99361.28;;;19.09;49.61
73692;BME280;61996;49.910;35.562;2022-10-23T05:35:58;99363.28;;;19.07;49.66
73692;BME280;61996;49.910;35.562;2022-10-23T05:39:02;99361.28;;;19.09;49.90
73692;BME280;61996;49.910;35.562;2022-10-23T05:42:06;99364.63;;;19.11;50.05
73692;BME280;61996;49.910;35.562;2022-10-23T05:45:09;99364.06;;;19.17;50.20
73692;BME280;61996;49.910;35.562;2022-10-23T05:48:13;99367.13;;;19.23;50.10
73692;BME280;61996;49.910;35.562;2022-10-23T05:51:36;99367.81;;;19.25;50.15
73692;BME280;61996;49.910;35.562;2022-10-23T05:54:40;99360.53;;;19.27;50.19
73692;BME280;61996;49.910;35.562;2022-10-23T05:57:43;99355.63;;;19.22;50.34
73692;BME280;61996;49.910;35.562;2022-10-23T06:00:46;99346.09;;;19.20;50.21
73692;BME280;61996;49.910;35.562;2022-10-23T06:03:49;99338.78;;;19.22;50.10
73692;BME280;61996;49.910;35.562;2022-10-23T06:06:53;99345.78;;;19.23;49.99
73692;BME280;61996;49.910;35.562;2022-10-23T06:09:56;99352.41;;;19.18;50.22
73692;BME280;61996;49.910;35.562;2022-10-23T06:12:59;99341.06;;;19.16;50.10
73692;BME280;61996;49.910;35.562;2022-10-23T06:16:08;99348.06;;;19.17;50.02
73692;BME280;61996;49.910;35.562;2022-10-23T06:19:11;99343.81;;;19.25;49.98
73692;BME280;61996;49.910;35.562;2022-10-23T06:22:15;99343.81;;;19.25;50.02
73692;BME280;61996;49.910;35.562;2022-10-23T06:25:23;99336.53;;;19.27;49.95
73692;BME280;61996;49.910;35.562;2022-10-23T06:28:26;99334.81;;;19.26;49.89
73692;BME280;61996;49.910;35.562;2022-10-23T06:31:29;99337.50;;;19.26;49.96
73692;BME280;61996;49.910;35.562;2022-10-23T06:34:32;99332.88;;;19.28;49.68
73692;BME280;61996;49.910;35.562;2022-10-23T06:37:36;99336.81;;;19.24;49.75
73692;BME280;61996;49.910;35.562;2022-10-23T06:40:40;99330.47;;;19.25;49.80
73692;BME280;61996;49.910;35.562;2022-10-23T06:43:43;99326.00;;;19.25;49.94
73692;BME280;61996;49.910;35.562;2022-10-23T06:46:46;99317.16;;;19.25;49.81
73692;BME280;61996;49.910;35.562;2022-10-23T06:49:48;99318.72;;;19.17;49.95
73692;BME280;61996;49.910;35.562;2022-10-23T06:52:53;99316.38;;;19.14;49.90
73692;BME280;61996;49.910;35.562;2022-10-23T06:55:57;99297.13;;;19.21;49.90
73692;BME280;61996;49.910;35.562;2022-10-23T06:59:00;99302.00;;;19.25;49.80
73692;BME280;61996;49.910;35.562;2022-10-23T07:02:05;99301.72;;;19.28;49.74
73692;BME280;61996;49.910;35.562;2022-10-23T07:05:08;99299.03;;;19.28;49.94
73692;BME280;61996;49.910;35.562;2022-10-23T07:08:15;99296.38;;;19.28;49.93
73692;BME280;61996;49.910;35.562;2022-10-23T07:11:19;99295.53;;;19.28;49.83
73692;BME280;61996;49.910;35.562;2022-10-23T07:14:21;99289.50;;;19.26;49.82
73692;BME280;61996;49.910;35.562;2022-10-23T07:17:24;99303.53;;;19.28;49.87
73692;BME280;61996;49.910;35.562;2022-10-23T07:20:27;99290.22;;;19.28;49.74
73692;BME280;61996;49.910;35.562;2022-10-23T07:23:32;99284.47;;;19.23;49.90
73692;BME280;61996;49.910;35.562;2022-10-23T07:26:34;99279.22;;;19.31;49.90
73692;BME280;61996;49.910;35.562;2022-10-23T07:29:37;99287.22;;;19.31;49.89
73692;BME280;61996;49.910;35.562;2022-10-23T07:32:40;99277.25;;;19.33;49.78
73692;BME280;61996;49.910;35.562;2022-10-23T07:35:43;99274.28;;;19.36;49.82
73692;BME280;61996;49.910;35.562;2022-10-23T07:38:49;99268.97;;;19.36;49.55
73692;BME280;61996;49.910;35.562;2022-10-23T07:41:52;99277.03;;;19.26;49.83
73692;BME280;61996;49.910;35.562;2022-10-23T07:44:54;99266.22;;;19.28;50.13
73692;BME280;61996;49.910;35.562;2022-10-23T07:47:57;99272.06;;;19.31;50.24
73692;BME280;61996;49.910;35.562;2022-10-23T07:51:01;99273.47;;;19.35;50.66
73692;BME280;61996;49.910;35.562;2022-10-23T07:54:10;99266.47;;;19.34;50.63
73692;BME280;61996;49.910;35.562;2022-10-23T07:57:13;99261.88;;;19.27;50.77
73692;BME280;61996;49.910;35.562;2022-10-23T08:00:16;99270.84;;;19.26;51.23
73692;BME280;61996;49.910;35.562;2022-10-23T08:03:19;99264.06;;;19.31;51.71
73692;BME280;61996;49.910;35.562;2022-10-23T08:06:22;99263.22;;;19.31;51.79
73692;BME280;61996;49.910;35.562;2022-10-23T08:09:27;99262.78;;;19.35;51.83
73692;BME280;61996;49.910;35.562;2022-10-23T08:12:29;99258.13;;;19.37;51.11
73692;BME280;61996;49.910;35.562;2022-10-23T08:15:32;99260.28;;;19.34;51.26
73692;BME280;61996;49.910;35.562;2022-10-23T08:18:36;99255.06;;;19.32;51.15
73692;BME280;61996;49.910;35.562;2022-10-23T08:21:41;99261.13;;;19.34;51.42
73692;BME280;61996;49.910;35.562;2022-10-23T08:24:45;99256.78;;;19.33;51.57
73692;BME280;61996;49.910;35.562;2022-10-23T08:27:48;99264.91;;;19.32;51.05
73692;BME280;61996;49.910;35.562;2022-10-23T08:30:52;99260.28;;;19.34;51.13
73692;BME280;61996;49.910;35.562;2022-10-23T08:33:55;99264.47;;;19.36;51.40
73692;BME280;61996;49.910;35.562;2022-10-23T08:36:58;99262.94;;;19.34;51.54
73692;BME280;61996;49.910;35.562;2022-10-23T08:40:03;99262.94;;;19.34;51.27
73692;BME280;61996;49.910;35.562;2022-10-23T08:43:10;99263.63;;;19.36;51.42
73692;BME280;61996;49.910;35.562;2022-10-23T08:46:14;99265.47;;;19.35;51.12
73692;BME280;61996;49.910;35.562;2022-10-23T08:49:22;99259.97;;;19.37;50.93
73692;BME280;61996;49.910;35.562;2022-10-23T08:52:28;99252.28;;;19.34;51.50
73692;BME280;61996;49.910;35.562;2022-10-23T08:55:35;99255.63;;;19.36;50.91
73692;BME280;61996;49.910;35.562;2022-10-23T08:58:40;99246.78;;;19.35;51.48
73692;BME280;61996;49.910;35.562;2022-10-23T09:01:48;99247.09;;;19.32;51.33
73692;BME280;61996;49.910;35.562;2022-10-23T09:04:53;99240.78;;;19.33;51.22
73692;BME280;61996;49.910;35.562;2022-10-23T09:08:03;99242.13;;;19.37;51.70
73692;BME280;61996;49.910;35.562;2022-10-23T09:11:12;99235.97;;;19.37;51.58
73692;BME280;61996;49.910;35.562;2022-10-23T09:14:30;99235.66;;;19.40;52.22
73692;BME280;61996;49.910;35.562;2022-10-23T09:17:36;99227.38;;;19.43;52.30
73692;BME280;61996;49.910;35.562;2022-10-23T09:20:43;99226.75;;;19.31;52.32
73692;BME280;61996;49.910;35.562;2022-10-23T09:23:46;99223.63;;;19.36;52.39
73692;BME280;61996;49.910;35.562;2022-10-23T09:26:51;99222.47;;;19.38;52.62
73692;BME280;61996;49.910;35.562;2022-10-23T09:29:54;99211.66;;;19.40;52.69
73692;BME280;61996;49.910;35.562;2022-10-23T09:32:59;99218.13;;;19.37;53.38
73692;BME280;61996;49.910;35.562;2022-10-23T09:36:04;99207.31;;;19.39;53.21
73692;BME280;61996;49.910;35.562;2022-10-23T09:39:17;99202.81;;;19.39;52.89
73692;BME280;61996;49.910;35.562;2022-10-23T09:42:24;99207.19;;;19.40;53.58
73692;BME280;61996;49.910;35.562;2022-10-23T09:45:28;99198.88;;;19.43;53.69
73692;BME280;61996;49.910;35.562;2022-10-23T09:48:32;99193.09;;;19.48;54.06
73692;BME280;61996;49.910;35.562;2022-10-23T09:51:35;99192.03;;;19.59;54.13
73692;BME280;61996;49.910;35.562;2022-10-23T09:54:43;99182.63;;;19.73;53.88
73692;BME280;61996;49.910;35.562;2022-10-23T09:57:47;99184.22;;;19.83;53.51
73692;BME280;61996;49.910;35.562;2022-10-23T10:00:51;99172.09;;;19.89;53.39
73692;BME280;61996;49.910;35.562;2022-10-23T10:03:56;99175.44;;;19.91;53.30
73692;BME280;61996;49.910;35.562;2022-10-23T10:06:59;99169.16;;;20.00;53.30
73692;BME280;61996;49.910;35.562;2022-10-23T10:10:06;99165.31;;;20.03;53.23
73692;BME280;61996;49.910;35.562;2022-10-23T10:13:13;99156.84;;;20.07;53.32
73692;BME280;61996;49.910;35.562;2022-10-23T10:16:26;99150.03;;;20.13;53.20
73692;BME280;61996;49.910;35.562;2022-10-23T10:19:38;99147.88;;;20.16;53.14
73692;BME280;61996;49.910;35.562;2022-10-23T10:22:47;99142.22;;;20.19;53.10
73692;BME280;61996;49.910;35.562;2022-10-23T10:25:53;99142.94;;;20.30;52.77
73692;BME280;61996;49.910;35.562;2022-10-23T10:29:15;99133.63;;;20.34;52.72
73692;BME280;61996;49.910;35.562;2022-10-23T10:32:26;99124.41;;;20.28;52.79
73692;BME280;61996;49.910;35.562;2022-10-23T10:35:36;99121.09;;;20.34;52.71
73692;BME280;61996;49.910;35.562;2022-10-23T10:38:41;99109.41;;;20.35;52.90
73692;BME280;61996;49.910;35.562;2022-10-23T10:41:48;99104.75;;;20.37;53.04
73692;BME280;61996;49.910;35.562;2022-10-23T10:45:05;99101.25;;;20.37;52.88
73692;BME280;61996;49.910;35.562;2022-10-23T10:51:35;99087.09;;;20.44;52.51
73692;BME280;61996;49.910;35.562;2022-10-23T10:54:44;99081.38;;;20.31;53.09
73692;BME280;61996;49.910;35.562;2022-10-23T10:57:51;99075.22;;;20.39;52.40
73692;BME280;61996;49.910;35.562;2022-10-23T11:01:04;99081.56;;;20.38;52.27
73692;BME280;61996;49.910;35.562;2022-10-23T11:04:13;99076.38;;;20.36;52.55
73692;BME280;61996;49.910;35.562;2022-10-23T11:07:20;99068.53;;;20.35;53.12
73692;BME280;61996;49.910;35.562;2022-10-23T11:10:26;99059.84;;;20.33;53.58
73692;BME280;61996;49.910;35.562;2022-10-23T11:13:32;99055.50;;;20.32;53.47
73692;BME280;61996;49.910;35.562;2022-10-23T11:16:37;99061.53;;;20.34;53.61
73692;BME280;61996;49.910;35.562;2022-10-23T11:19:44;99056.81;;;20.27;53.83
73692;BME280;61996;49.910;35.562;2022-10-23T11:22:49;99047.78;;;20.20;53.27
73692;BME280;61996;49.910;35.562;2022-10-23T11:25:58;99041.63;;;20.20;52.45
73692;BME280;61996;49.910;35.562;2022-10-23T11:29:17;99035.00;;;20.32;52.52
73692;BME280;61996;49.910;35.562;2022-10-23T11:32:34;99032.16;;;20.34;52.51
73692;BME280;61996;49.910;35.562;2022-10-23T11:35:47;99024.53;;;20.47;52.30
73692;BME280;61996;49.910;35.562;2022-10-23T11:38:53;99029.22;;;20.45;52.30
73692;BME280;61996;49.910;35.562;2022-10-23T11:42:10;99019.28;;;20.37;52.71
73692;BME280;61996;49.910;35.562;2022-10-23T11:45:27;99022.66;;;20.39;52.58
73692;BME280;61996;49.910;35.562;2022-10-23T11:48:36;99015.00;;;20.44;52.79
73692;BME280;61996;49.910;35.562;2022-10-23T11:51:45;99009.78;;;20.43;53.21
73692;BME280;61996;49.910;35.562;2022-10-23T11:54:59;99012.50;;;20.51;53.51
73692;BME280;61996;49.910;35.562;2022-10-23T11:58:18;99007.16;;;20.51;53.62
73692;BME280;61996;49.910;35.562;2022-10-23T12:01:33;99009.34;;;20.56;53.57
73692;BME280;61996;49.910;35.562;2022-10-23T12:04:40;99010.34;;;20.55;53.53
73692;BME280;61996;49.910;35.562;2022-10-23T12:07:52;99002.81;;;20.50;53.42
73692;BME280;61996;49.910;35.562;2022-10-23T12:10:56;99012.50;;;20.51;53.77
73692;BME280;61996;49.910;35.562;2022-10-23T12:13:59;99013.03;;;20.55;53.44
73692;BME280;61996;49.910;35.562;2022-10-23T12:17:02;99004.34;;;20.52;53.27
73692;BME280;61996;49.910;35.562;2022-10-23T12:20:24;99003.34;;;20.53;53.25
73692;BME280;61996;49.910;35.562;2022-10-23T12:23:37;99004.16;;;20.46;52.98
73692;BME280;61996;49.910;35.562;2022-10-23T12:27:03;99000.31;;;20.48;52.68
73692;BME280;61996;49.910;35.562;2022-10-23T12:30:19;98995.25;;;20.37;52.38
73692;BME280;61996;49.910;35.562;2022-10-23T12:33:24;98997.25;;;20.35;53.07
73692;BME280;61996;49.910;35.562;2022-10-23T12:36:36;98990.81;;;20.46;52.85
73692;BME280;61996;49.910;35.562;2022-10-23T12:39:41;98991.09;;;20.35;52.51
73692;BME280;61996;49.910;35.562;2022-10-23T12:42:48;98993.09;;;20.41;52.80
73692;BME280;61996;49.910;35.562;2022-10-23T12:45:51;98991.44;;;20.40;52.89
73692;BME280;61996;49.910;35.562;2022-10-23T12:48:56;98993.28;;;20.31;52.51
73692;BME280;61996;49.910;35.562;2022-10-23T12:52:02;98988.25;;;20.36;52.84
73692;BME280;61996;49.910;35.562;2022-10-23T12:55:11;98974.06;;;20.27;52.73
73692;BME280;61996;49.910;35.562;2022-10-23T12:58:18;98983.91;;;20.27;52.71
73692;BME280;61996;49.910;35.562;2022-10-23T13:01:22;98989.75;;;20.31;52.04
73692;BME280;61996;49.910;35.562;2022-10-23T13:04:27;98991.44;;;20.32;51.73
73692;BME280;61996;49.910;35.562;2022-10-23T13:07:33;98985.75;;;20.26;52.33
73692;BME280;61996;49.910;35.562;2022-10-23T13:10:37;98975.38;;;20.23;52.01
73692;BME280;61996;49.910;35.562;2022-10-23T13:13:40;98976.38;;;20.22;52.25
73692;BME280;61996;49.910;35.562;2022-10-23T13:16:43;98973.69;;;20.22;52.29
73692;BME280;61996;49.910;35.562;2022-10-23T13:19:46;98974.53;;;20.23;52.08
73692;BME280;61996;49.910;35.562;2022-10-23T13:22:51;98967.53;;;20.22;52.18
73692;BME280;61996;49.910;35.562;2022-10-23T13:26:01;98956.03;;;20.30;51.68
73692;BME280;61996;49.910;35.562;2022-10-23T13:29:12;98962.38;;;20.29;51.79
73692;BME280;61996;49.910;35.562;2022-10-23T13:32:20;98957.38;;;20.25;51.73
73692;BME280;61996;49.910;35.562;2022-10-23T13:35:25;98955.34;;;20.27;51.57
73692;BME280;61996;49.910;35.562;2022-10-23T13:38:30;98963.06;;;20.31;51.51
73692;BME280;61996;49.910;35.562;2022-10-23T13:41:35;98952.53;;;20.29;51.67
73692;BME280;61996;49.910;35.562;2022-10-23T13:44:39;98953.69;;;20.26;51.48
73692;BME280;61996;49.910;35.562;2022-10-23T13:47:42;98955.84;;;20.23;51.83
73692;BME280;61996;49.910;35.562;2022-10-23T13:50:46;98953.22;;;20.39;51.30
73692;BME280;61996;49.910;35.562;2022-10-23T13:53:50;98949.53;;;20.40;51.13
73692;BME280;61996;49.910;35.562;2022-10-23T13:56:53;98947.88;;;20.39;51.17
73692;BME280;61996;49.910;35.562;2022-10-23T13:59:56;98947.03;;;20.39;51.08
73692;BME280;61996;49.910;35.562;2022-10-23T14:02:59;98939.69;;;20.41;51.09
73692;BME280;61996;49.910;35.562;2022-10-23T14:06:02;98944.38;;;20.39;51.22
73692;BME280;61996;49.910;35.562;2022-10-23T14:09:07;98944.38;;;20.39;50.95
73692;BME280;61996;49.910;35.562;2022-10-23T14:12:10;98947.69;;;20.33;51.08
73692;BME280;61996;49.910;35.562;2022-10-23T14:15:14;98946.69;;;20.34;50.95
73692;BME280;61996;49.910;35.562;2022-10-23T14:18:17;98948.34;;;20.35;51.07
73692;BME280;61996;49.910;35.562;2022-10-23T14:21:20;98949.03;;;20.37;50.96
73692;BME280;61996;49.910;35.562;2022-10-23T14:24:25;98946.34;;;20.37;50.92
73692;BME280;61996;49.910;35.562;2022-10-23T14:27:28;98948.34;;;20.35;51.07
73692;BME280;61996;49.910;35.562;2022-10-23T14:30:31;98938.34;;;20.37;51.06
73692;BME280;61996;49.910;35.562;2022-10-23T14:33:34;98943.53;;;20.38;51.24
73692;BME280;61996;49.910;35.562;2022-10-23T14:36:37;98941.84;;;20.37;51.20
73692;BME280;61996;49.910;35.562;2022-10-23T14:39:54;98941.53;;;20.40;51.12
73692;BME280;61996;49.910;35.562;2022-10-23T14:42:58;98939.88;;;20.39;51.24
73692;BME280;61996;49.910;35.562;2022-10-23T14:46:06;98945.53;;;20.36;51.24
73692;BME280;61996;49.910;35.562;2022-10-23T14:49:09;98932.03;;;20.38;51.06
73692;BME280;61996;49.910;35.562;2022-10-23T14:52:12;98938.03;;;20.32;50.73
73692;BME280;61996;49.910;35.562;2022-10-23T14:55:16;98936.84;;;20.26;51.54
73692;BME280;61996;49.910;35.562;2022-10-23T14:58:19;98938.84;;;20.24;51.63
73692;BME280;61996;49.910;35.562;2022-10-23T15:01:24;98935.00;;;20.18;51.79
73692;BME280;61996;49.910;35.562;2022-10-23T15:04:30;98938.66;;;20.17;51.85
73692;BME280;61996;49.910;35.562;2022-10-23T15:07:33;98932.31;;;20.10;52.06
73692;BME280;61996;49.910;35.562;2022-10-23T15:10:37;98926.28;;;20.08;52.05
73692;BME280;61996;49.910;35.562;2022-10-23T15:13:41;98921.78;;;20.09;52.05
73692;BME280;61996;49.910;35.562;2022-10-23T15:16:45;98930.63;;;20.09;52.08
73692;BME280;61996;49.910;35.562;2022-10-23T15:19:50;98930.31;;;20.04;52.08
73692;BME280;61996;49.910;35.562;2022-10-23T15:22:53;98928.47;;;20.05;52.18
73692;BME280;61996;49.910;35.562;2022-10-23T15:25:59;98932.31;;;20.10;52.01
73692;BME280;61996;49.910;35.562;2022-10-23T15:29:03;98928.31;;;20.14;51.77
73692;BME280;61996;49.910;35.562;2022-10-23T15:32:06;98931.13;;;20.13;51.85
73692;BME280;61996;49.910;35.562;2022-10-23T15:35:12;98932.31;;;20.10;51.97
73692;BME280;61996;49.910;35.562;2022-10-23T15:38:15;98927.94;;;20.09;52.05
73692;BME280;61996;49.910;35.562;2022-10-23T15:41:27;98930.47;;;20.11;52.05
73692;BME280;61996;49.910;35.562;2022-10-23T15:44:32;98925.28;;;20.09;52.08
73692;BME280;61996;49.910;35.562;2022-10-23T15:47:39;98927.94;;;20.09;51.83
73692;BME280;61996;49.910;35.562;2022-10-23T15:50:43;98925.28;;;20.09;52.05
73692;BME280;61996;49.910;35.562;2022-10-23T15:53:47;98929.66;;;20.10;52.04
73692;BME280;61996;49.910;35.562;2022-10-23T15:56:54;98932.31;;;20.10;51.99
73692;BME280;61996;49.910;35.562;2022-10-23T16:00:11;98923.13;;;20.13;51.83
73692;BME280;61996;49.910;35.562;2022-10-23T16:03:20;98929.13;;;20.15;51.95
73692;BME280;61996;49.910;35.562;2022-10-23T16:06:28;98933.63;;;20.14;51.98
73692;BME280;61996;49.910;35.562;2022-10-23T16:09:33;98934.47;;;20.23;51.48
73692;BME280;61996;49.910;35.562;2022-10-23T16:25:07;98926.47;;;20.15;51.94
73692;BME280;61996;49.910;35.562;2022-10-23T16:28:16;98924.81;;;20.14;52.30
73692;BME280;61996;49.910;35.562;2022-10-23T16:31:23;98927.31;;;20.15;52.46